createdAt,value
2023-05-03T00:02:22.780Z,40.40
2023-05-03T00:05:18.290Z,40.30
2023-05-03T00:08:11.398Z,40.30
2023-05-03T00:11:04.265Z,40.30
2023-05-03T00:13:57.506Z,40.30
2023-05-03T00:16:50.422Z,40.90
2023-05-03T00:19:43.573Z,40.20
2023-05-03T00:22:37.929Z,40.10
2023-05-03T00:25:31.470Z,40.20
2023-05-03T00:28:25.331Z,40.20
2023-05-03T00:31:18.393Z,40.10
2023-05-03T00:34:11.770Z,40.10
2023-05-03T00:37:04.871Z,40.10
2023-05-03T00:40:00.411Z,40.00
2023-05-03T00:42:53.850Z,40.00
2023-05-03T00:45:47.553Z,40.00
2023-05-03T00:48:40.409Z,40.00
2023-05-03T00:51:33.822Z,40.10
2023-05-03T00:54:28.596Z,40.00
2023-05-03T00:57:22.902Z,40.00
2023-05-03T01:00:18.196Z,40.00
2023-05-03T01:03:11.512Z,40.00
2023-05-03T01:06:14.388Z,40.00
2023-05-03T01:09:13.748Z,40.00
2023-05-03T01:12:19.471Z,40.00
2023-05-03T01:15:21.845Z,40.00
2023-05-03T01:18:19.670Z,40.00
2023-05-03T01:21:15.863Z,39.90
2023-05-03T01:24:14.655Z,40.00
2023-05-03T01:27:09.447Z,40.00
2023-05-03T01:30:04.195Z,40.00
2023-05-03T01:33:04.540Z,40.00
2023-05-03T01:36:05.370Z,40.00
2023-05-03T01:38:58.531Z,39.90
2023-05-03T01:41:52.471Z,39.90
2023-05-03T01:44:48.259Z,39.80
2023-05-03T01:47:41.827Z,39.80
2023-05-03T01:50:34.732Z,39.80
2023-05-03T01:53:27.920Z,39.80
2023-05-03T01:56:21.527Z,39.80
2023-05-03T01:59:14.545Z,40.10
2023-05-03T02:02:08.949Z,39.80
2023-05-03T02:05:02.707Z,39.80
2023-05-03T02:07:55.899Z,39.80
2023-05-03T02:10:48.367Z,39.80
2023-05-03T02:13:41.332Z,39.80
2023-05-03T02:16:34.636Z,39.80
2023-05-03T02:19:29.118Z,40.40
2023-05-03T02:22:23.232Z,39.70
2023-05-03T02:25:16.763Z,39.80
2023-05-03T02:28:09.542Z,39.80
2023-05-03T02:31:02.583Z,39.70
2023-05-03T02:33:55.751Z,39.70
2023-05-03T02:36:49.880Z,39.60
2023-05-03T02:39:42.234Z,39.70
2023-05-03T02:42:35.880Z,39.70
2023-05-03T02:45:28.959Z,39.70
2023-05-03T02:48:22.799Z,39.50
2023-05-03T02:51:15.944Z,39.60
2023-05-03T02:54:11.052Z,39.50
2023-05-03T02:57:04.830Z,39.60
2023-05-03T02:59:57.491Z,39.60
2023-05-03T03:02:50.899Z,40.20
2023-05-03T03:05:44.553Z,39.60
2023-05-03T03:08:37.769Z,39.50
2023-05-03T03:11:31.732Z,39.60
2023-05-03T03:14:24.661Z,39.70
2023-05-03T03:17:17.760Z,39.60
2023-05-03T03:20:12.694Z,39.60
2023-05-03T03:23:05.698Z,39.60
2023-05-03T03:25:58.880Z,39.60
2023-05-03T03:28:52.921Z,39.60
2023-05-03T03:31:45.769Z,39.60
2023-05-03T03:34:38.589Z,39.50
2023-05-03T03:37:31.685Z,39.40
2023-05-03T03:40:24.982Z,39.40
2023-05-03T03:43:19.046Z,39.40
2023-05-03T03:46:14.210Z,39.30
2023-05-03T03:49:08.103Z,39.30
2023-05-03T03:52:01.698Z,39.30
2023-05-03T03:54:54.783Z,39.30
2023-05-03T03:57:47.585Z,39.20
2023-05-03T04:00:40.810Z,39.20
2023-05-03T04:03:35.573Z,39.20
2023-05-03T04:06:28.982Z,39.20
2023-05-03T04:09:22.696Z,39.20
2023-05-03T04:12:15.302Z,39.10
2023-05-03T04:15:09.899Z,39.10
2023-05-03T04:18:02.570Z,39.10
2023-05-03T04:20:56.823Z,39.00
2023-05-03T04:23:49.493Z,39.00
2023-05-03T04:26:42.842Z,39.10
2023-05-03T04:29:36.921Z,39.10
2023-05-03T04:32:37.083Z,39.10
2023-05-03T04:35:30.466Z,39.10
2023-05-03T04:38:25.050Z,39.10
2023-05-03T04:41:18.857Z,39.10
2023-05-03T04:44:12.099Z,39.00
2023-05-03T04:47:05.621Z,38.90
2023-05-03T04:49:59.006Z,38.90
2023-05-03T04:52:51.591Z,38.80
2023-05-03T04:55:47.441Z,38.90
2023-05-03T04:58:40.545Z,38.80
2023-05-03T05:01:33.946Z,38.80
2023-05-03T05:04:26.575Z,38.80
2023-05-03T05:07:19.887Z,38.80
2023-05-03T05:10:13.074Z,38.80
2023-05-03T05:13:07.974Z,38.80
2023-05-03T05:16:00.602Z,38.80
2023-05-03T05:18:53.727Z,38.80
2023-05-03T05:21:46.761Z,38.70
2023-05-03T05:24:39.757Z,38.70
2023-05-03T05:27:32.791Z,38.70
2023-05-03T05:30:27.222Z,38.80
2023-05-03T05:33:20.938Z,38.80
2023-05-03T05:36:14.272Z,38.80
2023-05-03T05:39:07.594Z,38.80
2023-05-03T05:42:01.308Z,38.90
2023-05-03T05:44:54.680Z,38.90
2023-05-03T05:47:49.251Z,39.00
2023-05-03T05:50:42.982Z,39.00
2023-05-03T05:53:35.711Z,39.00
2023-05-03T05:56:28.807Z,39.00
2023-05-03T05:59:21.672Z,39.00
2023-05-03T06:02:18.334Z,39.00
2023-05-03T06:05:13.447Z,39.00
2023-05-03T06:08:06.889Z,39.00
2023-05-03T06:10:59.972Z,39.00
2023-05-03T06:13:52.917Z,38.90
2023-05-03T06:16:45.870Z,38.80
2023-05-03T06:19:39.215Z,38.80
2023-05-03T06:22:34.098Z,38.80
2023-05-03T06:25:27.012Z,38.80
2023-05-03T06:28:19.633Z,38.80
2023-05-03T06:31:13.182Z,38.80
2023-05-03T06:34:08.063Z,38.90
2023-05-03T06:37:03.308Z,39.00
2023-05-03T06:39:58.101Z,39.10
2023-05-03T06:42:51.012Z,39.10
2023-05-03T06:45:45.016Z,39.20
2023-05-03T06:48:38.114Z,39.20
2023-05-03T06:51:33.081Z,39.20
2023-05-03T06:54:25.990Z,39.30
2023-05-03T06:57:21.261Z,39.30
2023-05-03T07:00:15.957Z,39.30
2023-05-03T07:03:08.920Z,39.30
2023-05-03T07:06:01.861Z,39.40
2023-05-03T07:08:55.354Z,39.40
2023-05-03T07:11:51.877Z,39.30
2023-05-03T07:14:46.285Z,39.30
2023-05-03T07:17:40.020Z,39.20
2023-05-03T07:20:32.940Z,39.20
2023-05-03T07:23:25.967Z,39.20
2023-05-03T07:26:18.975Z,39.20
2023-05-03T07:29:11.509Z,39.30
2023-05-03T07:32:07.076Z,39.20
2023-05-03T07:34:59.954Z,39.30
2023-05-03T07:37:52.926Z,39.40
2023-05-03T07:40:46.062Z,39.40
2023-05-03T07:43:39.422Z,39.30
2023-05-03T07:46:35.071Z,39.40
2023-05-03T07:49:31.023Z,39.30
2023-05-03T07:52:23.952Z,39.50
2023-05-03T07:55:19.013Z,39.40
2023-05-03T07:58:12.022Z,39.40
2023-05-03T08:01:05.257Z,39.60
2023-05-03T08:03:59.425Z,39.00
2023-05-03T08:06:54.424Z,39.40
2023-05-03T08:09:48.569Z,39.30
2023-05-03T08:12:42.171Z,39.50
2023-05-03T08:15:35.606Z,39.50
2023-05-03T08:18:29.427Z,39.50
2023-05-03T08:21:24.784Z,39.00
2023-05-03T08:24:19.097Z,39.20
2023-05-03T08:27:12.432Z,39.30
2023-05-03T08:30:07.744Z,39.80
2023-05-03T08:33:00.772Z,39.10
2023-05-03T08:35:53.747Z,38.90
2023-05-03T08:38:46.735Z,37.80
2023-05-03T08:41:41.675Z,38.10
2023-05-03T08:44:37.899Z,38.30
2023-05-03T08:47:35.777Z,38.00
2023-05-03T08:50:29.183Z,38.20
2023-05-03T08:53:22.207Z,38.20
2023-05-03T08:56:21.147Z,38.30
2023-05-03T08:59:17.235Z,38.00
2023-05-03T09:02:12.236Z,38.20
2023-05-03T09:05:07.005Z,37.90
2023-05-03T09:08:05.945Z,38.30
2023-05-03T09:10:59.155Z,38.60
2023-05-03T09:13:53.320Z,38.20
2023-05-03T09:16:48.279Z,37.90
2023-05-03T09:19:52.567Z,38.20
2023-05-03T09:22:52.736Z,38.30
2023-05-03T09:25:47.040Z,38.40
2023-05-03T09:28:43.594Z,38.20
2023-05-03T09:31:38.272Z,38.40
2023-05-03T09:34:34.080Z,38.60
2023-05-03T09:37:38.970Z,38.60
2023-05-03T09:40:32.233Z,38.50
2023-05-03T09:43:25.576Z,38.60
2023-05-03T09:46:20.456Z,38.50
2023-05-03T09:49:15.635Z,38.60
2023-05-03T09:52:12.015Z,38.10
2023-05-03T09:55:05.774Z,38.20
2023-05-03T09:57:59.431Z,38.00
2023-05-03T10:00:53.381Z,38.10
2023-05-03T10:03:50.379Z,38.00
2023-05-03T10:06:44.270Z,38.10
2023-05-03T10:09:43.241Z,38.20
2023-05-03T10:12:37.026Z,38.40
2023-05-03T10:15:31.604Z,38.00
2023-05-03T10:18:28.350Z,38.10
2023-05-03T10:21:28.640Z,38.20
2023-05-03T10:24:22.308Z,38.30
2023-05-03T10:27:18.122Z,38.00
2023-05-03T10:30:31.018Z,38.10
2023-05-03T10:33:34.684Z,38.20
2023-05-03T10:36:38.426Z,38.10
2023-05-03T10:39:45.084Z,38.00
2023-05-03T10:42:40.392Z,38.40
2023-05-03T10:45:34.287Z,38.30
2023-05-03T10:48:28.511Z,38.20
2023-05-03T10:51:37.035Z,38.10
2023-05-03T10:54:31.286Z,38.20
2023-05-03T10:57:28.103Z,38.00
2023-05-03T11:00:28.889Z,38.30
2023-05-03T11:03:37.923Z,38.20
2023-05-03T11:06:33.672Z,38.50
2023-05-03T11:09:35.346Z,38.30
2023-05-03T11:12:28.987Z,38.00
2023-05-03T11:15:23.556Z,37.80
2023-05-03T11:18:18.050Z,37.60
2023-05-03T11:21:12.007Z,37.90
2023-05-03T11:24:05.179Z,37.80
2023-05-03T11:26:58.225Z,38.00
2023-05-03T11:29:50.981Z,37.50
2023-05-03T11:32:45.833Z,37.80
2023-05-03T11:35:40.107Z,38.00
2023-05-03T11:38:34.043Z,37.70
2023-05-03T11:41:27.710Z,37.80
2023-05-03T11:44:21.671Z,37.90
2023-05-03T11:47:15.112Z,37.40
2023-05-03T11:50:10.535Z,37.90
2023-05-03T11:53:04.342Z,37.80
2023-05-03T11:55:57.212Z,38.00
2023-05-03T11:58:58.217Z,38.00
2023-05-03T12:01:55.451Z,38.10
2023-05-03T12:04:49.280Z,38.00
2023-05-03T12:07:47.929Z,37.60
2023-05-03T12:10:42.857Z,37.90
2023-05-03T12:13:38.785Z,37.90
2023-05-03T12:16:50.917Z,37.90
2023-05-03T12:19:44.675Z,37.70
2023-05-03T12:22:39.810Z,38.10
2023-05-03T12:25:35.998Z,37.90
2023-05-03T12:28:32.267Z,38.00
2023-05-03T12:31:26.495Z,38.10
2023-05-03T12:34:33.559Z,38.50
2023-05-03T12:37:31.695Z,38.30
2023-05-03T12:40:34.023Z,38.10
2023-05-03T12:43:29.661Z,38.00
2023-05-03T12:46:33.914Z,38.30
2023-05-03T12:49:28.378Z,38.50
2023-05-03T12:52:37.367Z,38.80
2023-05-03T12:55:35.195Z,39.10
2023-05-03T12:58:57.891Z,39.10
2023-05-03T13:07:42.473Z,39.30
2023-05-03T13:10:37.298Z,39.30
2023-05-03T13:13:30.295Z,39.30
2023-05-03T13:16:25.858Z,39.40
2023-05-03T13:19:19.033Z,39.40
2023-05-03T13:22:12.683Z,40.10
2023-05-03T13:25:07.247Z,39.50
2023-05-03T13:28:01.804Z,39.50
2023-05-03T13:30:54.851Z,39.50
2023-05-03T13:33:49.878Z,39.50
2023-05-03T13:36:43.561Z,39.50
2023-05-03T13:39:37.122Z,39.50
2023-05-03T13:42:30.524Z,39.50
2023-05-03T13:45:24.070Z,39.50
2023-05-03T13:48:18.357Z,39.50
2023-05-03T13:51:14.564Z,39.50
2023-05-03T13:54:08.854Z,39.50
2023-05-03T13:57:02.252Z,39.60
2023-05-03T13:59:55.088Z,39.50
2023-05-03T14:02:48.665Z,39.50
2023-05-03T14:05:42.133Z,39.90
2023-05-03T14:08:36.600Z,39.50
2023-05-03T14:11:31.563Z,39.50
2023-05-03T14:14:27.999Z,39.50
2023-05-03T14:17:21.675Z,39.60
2023-05-03T14:20:17.159Z,39.50
2023-05-03T14:23:10.140Z,39.50
2023-05-03T14:26:04.869Z,39.50
2023-05-03T14:29:00.438Z,39.40
2023-05-03T14:31:53.555Z,39.50
2023-05-03T14:34:48.373Z,39.60
2023-05-03T14:37:41.750Z,39.50
2023-05-03T14:40:35.283Z,39.60
2023-05-03T14:43:29.592Z,39.50
2023-05-03T14:46:23.518Z,39.50
2023-05-03T14:49:17.685Z,39.50
2023-05-03T14:52:11.489Z,39.50
2023-05-03T14:55:05.355Z,39.50
2023-05-03T14:57:59.082Z,39.50
2023-05-03T15:00:53.767Z,39.50
2023-05-03T15:03:47.393Z,39.50
2023-05-03T15:06:41.095Z,39.40
2023-05-03T15:09:34.552Z,39.50
2023-05-03T15:12:28.060Z,39.50
2023-05-03T15:15:21.720Z,39.50
2023-05-03T15:18:20.124Z,39.50
2023-05-03T15:21:13.052Z,39.50
2023-05-03T15:24:07.141Z,39.50
2023-05-03T15:27:04.110Z,39.50
2023-05-03T15:29:57.378Z,39.50
2023-05-03T15:32:50.586Z,39.50
2023-05-03T15:35:45.534Z,39.50
2023-05-03T15:38:39.383Z,39.50
2023-05-03T15:41:32.307Z,39.40
2023-05-03T15:44:25.556Z,39.40
2023-05-03T15:47:19.213Z,39.50
2023-05-03T15:50:12.663Z,39.40
2023-05-03T15:53:07.421Z,39.30
2023-05-03T15:56:02.477Z,39.40
2023-05-03T15:58:56.386Z,39.40
2023-05-03T16:01:49.358Z,39.50
2023-05-03T16:04:42.196Z,39.40
2023-05-03T16:07:35.770Z,39.40
2023-05-03T16:10:30.721Z,39.40
2023-05-03T16:13:24.231Z,39.40
2023-05-03T16:16:17.252Z,39.40
2023-05-03T16:19:11.750Z,39.40
2023-05-03T16:22:05.797Z,39.30
2023-05-03T16:24:59.268Z,39.50
2023-05-03T16:27:53.957Z,39.50
2023-05-03T16:30:47.534Z,39.40
2023-05-03T16:33:40.575Z,39.40
2023-05-03T16:36:33.770Z,39.40
2023-05-03T16:39:27.302Z,39.40
2023-05-03T16:42:20.591Z,39.50
2023-05-03T16:45:16.848Z,39.50
2023-05-03T16:48:10.879Z,39.40
2023-05-03T16:51:04.466Z,39.50
2023-05-03T16:53:57.700Z,39.50
2023-05-03T16:56:51.992Z,39.50
2023-05-03T16:59:45.001Z,39.50
2023-05-03T17:02:40.088Z,39.50
2023-05-03T17:05:34.967Z,39.50
2023-05-03T17:08:28.182Z,39.50
2023-05-03T17:11:22.316Z,39.50
2023-05-03T17:14:15.452Z,39.50
2023-05-03T17:17:08.530Z,39.50
2023-05-03T17:20:02.744Z,39.50
2023-05-03T17:22:56.627Z,39.50
2023-05-03T17:25:50.142Z,39.50
2023-05-03T17:28:45.160Z,39.50
2023-05-03T17:31:38.666Z,39.60
2023-05-03T17:34:32.856Z,39.50
2023-05-03T17:37:28.169Z,39.50
2023-05-03T17:40:21.591Z,39.50
2023-05-03T17:43:16.425Z,39.50
2023-05-03T17:46:12.073Z,39.50
2023-05-03T17:49:05.201Z,39.60
2023-05-03T17:51:58.693Z,40.10
2023-05-03T17:54:55.005Z,39.50
2023-05-03T17:57:49.498Z,39.50
2023-05-03T18:00:43.200Z,39.60
2023-05-03T18:03:37.312Z,39.50
2023-05-03T18:06:30.789Z,39.60
2023-05-03T18:09:26.725Z,39.60
2023-05-03T18:12:22.622Z,39.50
2023-05-03T18:15:16.360Z,39.60
2023-05-03T18:18:09.689Z,39.70
2023-05-03T18:21:07.264Z,39.60
2023-05-03T18:24:01.113Z,39.60
2023-05-03T18:26:54.880Z,39.60
2023-05-03T18:29:49.866Z,39.60
2023-05-03T18:32:43.702Z,39.60
2023-05-03T18:35:37.509Z,40.20
2023-05-03T18:38:30.628Z,39.60
2023-05-03T18:41:24.019Z,39.60
2023-05-03T18:44:17.717Z,39.60
2023-05-03T18:47:15.248Z,39.60
2023-05-03T18:50:09.613Z,39.60
2023-05-03T18:53:07.354Z,39.60
2023-05-03T18:56:02.111Z,39.60
2023-05-03T18:58:56.201Z,39.60
2023-05-03T19:01:50.168Z,39.60
2023-05-03T19:04:44.872Z,39.60
2023-05-03T19:07:42.768Z,39.60
2023-05-03T19:10:36.416Z,39.70
2023-05-03T19:13:29.353Z,39.60
2023-05-03T19:16:22.550Z,39.60
2023-05-03T19:19:15.628Z,39.60
2023-05-03T19:22:09.575Z,39.60
2023-05-03T19:25:04.697Z,39.70
2023-05-03T19:27:58.299Z,39.60
2023-05-03T19:30:52.476Z,39.60
2023-05-03T19:33:45.640Z,39.60
2023-05-03T19:36:39.598Z,39.60
2023-05-03T19:39:35.606Z,39.70
2023-05-03T19:42:28.643Z,39.70
2023-05-03T19:45:21.636Z,39.70
2023-05-03T19:48:16.562Z,39.80
2023-05-03T19:51:14.421Z,39.70
2023-05-03T19:54:07.727Z,39.60
2023-05-03T19:57:05.954Z,39.70
2023-05-03T19:59:59.232Z,39.80
2023-05-03T20:02:52.915Z,39.90
2023-05-03T20:05:47.151Z,39.90
2023-05-03T20:08:40.929Z,40.00
2023-05-03T20:11:34.822Z,40.00
2023-05-03T20:14:30.090Z,40.10
2023-05-03T20:17:23.705Z,40.20
2023-05-03T20:20:16.866Z,40.20
2023-05-03T20:23:11.887Z,40.20
2023-05-03T20:26:05.736Z,40.20
2023-05-03T20:28:59.753Z,40.20
2023-05-03T20:31:54.278Z,40.20
2023-05-03T20:34:47.852Z,40.30
2023-05-03T20:37:41.517Z,40.30
2023-05-03T20:40:34.890Z,40.30
2023-05-03T20:43:28.745Z,40.20
2023-05-03T20:46:21.935Z,40.20
2023-05-03T20:49:16.638Z,40.30
2023-05-03T20:52:10.081Z,40.30
2023-05-03T20:55:03.801Z,40.20
2023-05-03T20:57:56.987Z,40.20
2023-05-03T21:00:52.265Z,40.20
2023-05-03T21:03:46.138Z,40.20
2023-05-03T21:06:44.817Z,40.20
2023-05-03T21:09:39.842Z,40.20
2023-05-03T21:12:33.366Z,40.20
2023-05-03T21:15:26.753Z,40.10
2023-05-03T21:18:20.026Z,40.20
2023-05-03T21:21:14.059Z,40.10
2023-05-03T21:24:09.705Z,40.00
2023-05-03T21:27:03.527Z,40.10
2023-05-03T21:29:56.595Z,40.10
2023-05-03T21:32:50.172Z,40.10
2023-05-03T21:35:43.582Z,40.00
2023-05-03T21:38:36.965Z,40.10
2023-05-03T21:41:32.258Z,40.00
2023-05-03T21:44:25.818Z,40.00
2023-05-03T21:47:18.795Z,40.00
2023-05-03T21:50:13.046Z,40.00
2023-05-03T21:53:07.275Z,40.00
2023-05-03T21:56:00.888Z,40.00
2023-05-03T21:58:55.986Z,39.90
2023-05-03T22:01:50.330Z,40.00
2023-05-03T22:04:43.539Z,39.90
2023-05-03T22:07:37.513Z,39.90
2023-05-03T22:10:30.433Z,39.90
2023-05-03T22:13:23.363Z,39.90
2023-05-03T22:16:18.152Z,39.80
2023-05-03T22:19:11.988Z,39.80
2023-05-03T22:22:05.553Z,39.80
2023-05-03T22:25:00.756Z,39.80
2023-05-03T22:27:53.787Z,39.80
2023-05-03T22:30:46.765Z,39.80
2023-05-03T22:33:44.679Z,39.70
2023-05-03T22:36:38.439Z,39.70
2023-05-03T22:39:32.178Z,39.60
2023-05-03T22:42:25.690Z,39.70
2023-05-03T22:45:18.694Z,39.60
2023-05-03T22:48:11.540Z,39.60
2023-05-03T22:51:06.312Z,39.60
2023-05-03T22:53:59.691Z,39.60
2023-05-03T22:56:52.721Z,39.60
2023-05-03T22:59:46.216Z,39.60
2023-05-03T23:02:39.967Z,39.50
2023-05-03T23:05:33.866Z,39.50
2023-05-03T23:08:27.997Z,39.50
2023-05-03T23:11:22.671Z,39.50
2023-05-03T23:14:16.000Z,39.50
2023-05-03T23:17:10.091Z,39.50
2023-05-03T23:20:05.504Z,39.40
2023-05-03T23:22:58.772Z,39.40
2023-05-03T23:25:53.109Z,39.30
2023-05-03T23:28:46.843Z,39.30
2023-05-03T23:31:40.500Z,39.30
2023-05-03T23:34:34.871Z,39.20
2023-05-03T23:37:27.749Z,39.20
2023-05-03T23:40:21.287Z,39.20
2023-05-03T23:43:16.052Z,39.20
2023-05-03T23:46:10.068Z,39.20
2023-05-03T23:49:03.625Z,39.20
2023-05-03T23:51:56.648Z,39.20
2023-05-03T23:54:49.390Z,39.20
2023-05-03T23:57:43.023Z,39.10
